Time,TemperatureF,DewpointF,PressureIn,WindDirection,WindDirectionDegrees,WindSpeedMPH,WindSpeedGustMPH,Humidity,HourlyPrecipIn,Conditions,Clouds,dailyrainin,SoftwareType,DateUTC
2013-02-27 00:00:00,41.1,40.0,30.19,SE,143,3.0,3.0,96,0.04,,,0.15,Wunderground v.1.15,2013-02-27 08:00:00,
2013-02-27 00:10:00,41.0,39.9,30.20,SE,138,3.0,3.0,96,0.00,,,0.00,Wunderground v.1.15,2013-02-27 08:10:00,
2013-02-27 00:15:00,41.0,39.9,30.20,SSE,148,3.0,4.0,96,0.00,,,0.00,Wunderground v.1.15,2013-02-27 08:15:00,
2013-02-27 00:25:00,41.1,40.0,30.20,SE,142,3.0,4.0,96,0.00,,,0.00,Wunderground v.1.15,2013-02-27 08:25:00,
2013-02-27 00:30:00,41.2,40.1,30.20,SW,227,3.0,3.0,96,0.00,,,0.00,Wunderground v.1.15,2013-02-27 08:30:00,
2013-02-27 00:40:00,41.3,40.2,30.20,South,175,0.0,0.0,96,0.00,,,0.00,Wunderground v.1.15,2013-02-27 08:40:00,
2013-02-27 00:50:00,41.5,40.4,30.21,SSW,196,1.0,1.0,96,0.00,,,0.00,Wunderground v.1.15,2013-02-27 08:50:00,
2013-02-27 00:55:00,41.5,40.4,30.21,SSW,200,1.0,5.0,96,0.00,,,0.00,Wunderground v.1.15,2013-02-27 08:55:00,
2013-02-27 01:00:00,41.6,40.5,30.21,South,175,1.0,1.0,96,0.00,,,0.00,Wunderground v.1.15,2013-02-27 09:00:00,
2013-02-27 01:10:00,41.5,40.4,30.21,South,190,2.0,2.0,96,0.00,,,0.00,Wunderground v.1.15,2013-02-27 09:10:00,
2013-02-27 01:20:00,41.4,40.3,30.21,SSE,163,2.0,2.0,96,0.00,,,0.00,Wunderground v.1.15,2013-02-27 09:20:00,
2013-02-27 01:25:00,41.2,40.1,30.21,South,171,1.0,2.0,96,0.00,,,0.00,Wunderground v.1.15,2013-02-27 09:25:00,
2013-02-27 01:35:00,41.0,39.9,30.21,SSE,159,1.0,2.0,96,0.00,,,0.00,Wunderground v.1.15,2013-02-27 09:35:00,
2013-02-27 01:45:00,41.0,39.9,30.22,SSE,156,2.0,3.0,96,0.00,,,0.00,Wunderground v.1.15,2013-02-27 09:45:00,
2013-02-27 01:55:00,40.9,39.8,30.22,South,175,1.0,5.0,96,0.00,,,0.00,Wunderground v.1.15,2013-02-27 09:55:00,
2013-02-27 02:00:00,40.7,39.6,30.22,SE,146,0.0,0.0,96,0.00,,,0.00,Wunderground v.1.15,2013-02-27 10:00:00,
2013-02-27 02:10:00,40.8,40.0,30.23,SSW,201,0.0,0.0,97,0.00,,,0.00,Wunderground v.1.15,2013-02-27 10:10:00,
2013-02-27 02:20:00,40.8,40.0,30.23,SSW,201,0.0,0.0,97,0.00,,,0.00,Wunderground v.1.15,2013-02-27 10:20:00,
2013-02-27 02:30:00,40.6,39.8,30.23,SSW,201,0.0,1.0,97,0.00,,,0.00,Wunderground v.1.15,2013-02-27 10:30:00,
2013-02-27 02:35:00,40.6,39.8,30.23,SSW,201,0.0,1.0,97,0.00,,,0.00,Wunderground v.1.15,2013-02-27 10:35:00,
2013-02-27 02:45:00,40.7,39.9,30.23,South,174,1.0,1.0,97,0.00,,,0.00,Wunderground v.1.15,2013-02-27 10:45:00,
2013-02-27 02:55:00,40.6,39.8,30.23,South,175,1.0,6.0,97,0.00,,,0.00,Wunderground v.1.15,2013-02-27 10:55:00,
2013-02-27 03:05:00,40.5,39.7,30.23,South,169,1.0,1.0,97,0.00,,,0.00,Wunderground v.1.15,2013-02-27 11:05:00,
2013-02-27 03:15:00,40.5,39.7,30.23,SSW,194,1.0,2.0,97,0.00,,,0.00,Wunderground v.1.15,2013-02-27 11:15:00,
2013-02-27 03:25:00,40.6,39.8,30.23,South,189,1.0,3.0,97,0.00,,,0.00,Wunderground v.1.15,2013-02-27 11:25:00,
2013-02-27 03:35:00,40.6,39.8,30.23,SSE,157,0.0,1.0,97,0.00,,,0.00,Wunderground v.1.15,2013-02-27 11:35:00,
2013-02-27 03:45:00,40.6,39.8,30.23,SSE,157,0.0,2.0,97,0.00,,,0.00,Wunderground v.1.15,2013-02-27 11:45:00,
2013-02-27 03:50:00,40.4,39.6,30.23,SSE,157,0.0,0.0,97,0.00,,,0.00,Wunderground v.1.15,2013-02-27 11:50:00,
2013-02-27 04:00:00,40.1,39.3,30.23,SSE,157,0.0,0.0,97,0.00,,,0.00,Wunderground v.1.15,2013-02-27 12:00:00,
2013-02-27 04:10:00,39.7,38.9,30.23,SSE,157,0.0,0.0,97,0.00,,,0.00,Wunderground v.1.15,2013-02-27 12:10:00,
2013-02-27 04:20:00,39.4,38.6,30.24,SSE,157,0.0,0.0,97,0.00,,,0.00,Wunderground v.1.15,2013-02-27 12:20:00,
2013-02-27 04:30:00,39.7,38.9,30.24,SSE,157,0.0,0.0,97,0.00,,,0.00,Wunderground v.1.15,2013-02-27 12:30:00,
2013-02-27 04:40:00,39.8,39.0,30.24,SSE,157,0.0,0.0,97,0.00,,,0.00,Wunderground v.1.15,2013-02-27 12:40:00,
2013-02-27 04:50:00,40.0,39.2,30.24,SSE,157,0.0,0.0,97,0.00,,,0.00,Wunderground v.1.15,2013-02-27 12:50:00,
2013-02-27 05:00:00,39.7,38.9,30.25,SSE,157,0.0,0.0,97,0.00,,,0.00,Wunderground v.1.15,2013-02-27 13:00:00,
2013-02-27 05:10:00,39.4,38.6,30.26,SSE,157,0.0,0.0,97,0.00,,,0.00,Wunderground v.1.15,2013-02-27 13:10:00,
2013-02-27 05:20:00,39.2,38.4,30.26,SSE,157,0.0,0.0,97,0.00,,,0.00,Wunderground v.1.15,2013-02-27 13:20:00,
2013-02-27 05:30:00,38.7,37.9,30.27,SSE,157,0.0,0.0,97,0.00,,,0.00,Wunderground v.1.15,2013-02-27 13:30:00,
2013-02-27 05:40:00,38.5,37.7,30.27,SSE,157,0.0,0.0,97,0.00,,,0.00,Wunderground v.1.15,2013-02-27 13:40:00,
2013-02-27 05:50:00,38.6,37.8,30.27,SSE,157,0.0,0.0,97,0.00,,,0.00,Wunderground v.1.15,2013-02-27 13:50:00,
2013-02-27 05:55:00,38.4,37.6,30.28,SSE,157,0.0,1.0,97,0.00,,,0.00,Wunderground v.1.15,2013-02-27 13:55:00,
2013-02-27 06:00:00,38.2,37.4,30.28,SSE,157,0.0,0.0,97,0.00,,,0.00,Wunderground v.1.15,2013-02-27 14:00:00,
2013-02-27 06:10:00,38.2,37.4,30.28,SSE,157,0.0,0.0,97,0.00,,,0.00,Wunderground v.1.15,2013-02-27 14:10:00,
2013-02-27 06:20:00,38.2,37.4,30.28,SSE,157,0.0,0.0,97,0.00,,,0.00,Wunderground v.1.15,2013-02-27 14:20:00,
2013-02-27 06:30:00,38.2,37.4,30.28,SSE,157,0.0,0.0,97,0.00,,,0.00,Wunderground v.1.15,2013-02-27 14:30:00,
2013-02-27 06:40:00,37.9,37.1,30.28,SSE,157,0.0,0.0,97,0.00,,,0.00,Wunderground v.1.15,2013-02-27 14:40:00,
2013-02-27 06:50:00,37.4,36.6,30.27,SSE,157,0.0,1.0,97,0.00,,,0.00,Wunderground v.1.15,2013-02-27 14:50:00,
2013-02-27 07:00:00,37.8,37.0,30.27,SSE,157,0.0,0.0,97,0.00,,,0.00,Wunderground v.1.15,2013-02-27 15:00:00,
2013-02-27 07:10:00,38.2,37.4,30.27,SSE,157,0.0,1.0,97,0.00,,,0.00,Wunderground v.1.15,2013-02-27 15:10:00,
2013-02-27 07:20:00,38.6,37.8,30.27,SSE,157,0.0,0.0,97,0.00,,,0.00,Wunderground v.1.15,2013-02-27 15:20:00,
2013-02-27 07:30:00,37.5,36.7,30.27,SSE,157,0.0,0.0,97,0.00,,,0.00,Wunderground v.1.15,2013-02-27 15:30:00,
2013-02-27 07:40:00,36.9,36.1,30.27,SSE,157,0.0,0.0,97,0.00,,,0.00,Wunderground v.1.15,2013-02-27 15:40:00,
2013-02-27 07:50:00,37.0,36.2,30.26,SSE,157,0.0,0.0,97,0.00,,,0.00,Wunderground v.1.15,2013-02-27 15:50:00,
2013-02-27 08:00:00,37.2,36.4,30.27,SSE,157,0.0,0.0,97,0.00,,,0.00,Wunderground v.1.15,2013-02-27 16:00:00,
2013-02-27 08:10:00,37.0,36.2,30.27,SSE,157,0.0,0.0,97,0.00,,,0.00,Wunderground v.1.15,2013-02-27 16:10:00,
2013-02-27 08:20:00,36.8,36.0,30.27,SSE,157,0.0,0.0,97,0.00,,,0.00,Wunderground v.1.15,2013-02-27 16:20:00,
2013-02-27 08:30:00,36.7,35.9,30.27,SSE,157,0.0,0.0,97,0.00,,,0.00,Wunderground v.1.15,2013-02-27 16:30:00,
2013-02-27 09:25:00,38.3,37.8,30.25,North,5,3.0,3.0,98,0.00,,,0.00,Wunderground v.1.15,2013-02-27 17:25:00,
2013-02-27 09:35:00,39.2,38.7,30.25,ESE,114,1.0,3.0,98,0.00,,,0.00,Wunderground v.1.15,2013-02-27 17:35:00,
2013-02-27 09:45:00,42.2,41.7,30.24,ESE,123,3.0,4.0,98,0.00,,,0.00,Wunderground v.1.15,2013-02-27 17:45:00,
2013-02-27 09:50:00,42.4,41.9,30.25,SSE,159,5.0,5.0,98,0.00,,,0.00,Wunderground v.1.15,2013-02-27 17:50:00,
2013-02-27 10:00:00,42.7,42.2,30.25,SE,132,3.0,3.0,98,0.00,,,0.00,Wunderground v.1.15,2013-02-27 18:00:00,
2013-02-27 10:10:00,42.9,42.4,30.25,SE,124,3.0,7.0,98,0.00,,,0.00,Wunderground v.1.15,2013-02-27 18:10:00,
2013-02-27 10:20:00,43.1,42.6,30.25,SE,130,4.0,7.0,98,0.00,,,0.00,Wunderground v.1.15,2013-02-27 18:20:00,
2013-02-27 10:30:00,43.5,42.7,30.25,ESE,117,4.0,4.0,97,0.00,,,0.00,Wunderground v.1.15,2013-02-27 18:30:00,
2013-02-27 10:40:00,43.9,42.6,30.26,ESE,117,4.0,9.0,95,0.00,,,0.00,Wunderground v.1.15,2013-02-27 18:40:00,
2013-02-27 10:50:00,44.2,42.9,30.26,ESE,123,3.0,4.0,95,0.00,,,0.00,Wunderground v.1.15,2013-02-27 18:50:00,
2013-02-27 11:00:00,44.6,43.0,30.27,SE,138,1.0,1.0,94,0.00,,,0.00,Wunderground v.1.15,2013-02-27 19:00:00,
2013-02-27 11:10:00,44.9,43.0,30.27,SE,138,2.0,2.0,93,0.00,,,0.00,Wunderground v.1.15,2013-02-27 19:10:00,
2013-02-27 11:20:00,45.0,43.1,30.27,ESE,119,3.0,6.0,93,0.00,,,0.00,Wunderground v.1.15,2013-02-27 19:20:00,
2013-02-27 11:25:00,45.0,42.8,30.26,SE,136,3.0,6.0,92,0.00,,,0.00,Wunderground v.1.15,2013-02-27 19:25:00,
2013-02-27 11:35:00,45.4,43.5,30.27,ESE,121,1.0,2.0,93,0.00,,,0.00,Wunderground v.1.15,2013-02-27 19:35:00,
2013-02-27 11:45:00,45.5,43.3,30.26,ESE,123,2.0,3.0,92,0.00,,,0.00,Wunderground v.1.15,2013-02-27 19:45:00,
2013-02-27 11:50:00,45.6,43.4,30.27,ESE,121,2.0,3.0,92,0.00,,,0.00,Wunderground v.1.15,2013-02-27 19:50:00,
2013-02-27 12:00:00,45.8,43.6,30.27,ENE,69,1.0,1.0,92,0.00,,,0.00,Wunderground v.1.15,2013-02-27 20:00:00,
2013-02-27 12:10:00,45.6,43.1,30.28,ENE,69,0.0,2.0,91,0.00,,,0.00,Wunderground v.1.15,2013-02-27 20:10:00,
2013-02-27 12:20:00,45.5,43.3,30.27,ESE,123,1.0,2.0,92,0.00,,,0.00,Wunderground v.1.15,2013-02-27 20:20:00,
2013-02-27 12:30:00,45.6,43.4,30.27,ESE,123,0.0,0.0,92,0.00,,,0.00,Wunderground v.1.15,2013-02-27 20:30:00,
2013-02-27 12:40:00,45.8,43.6,30.27,North,9,0.0,0.0,92,0.00,,,0.00,Wunderground v.1.15,2013-02-27 20:40:00,
2013-02-27 12:45:00,45.8,43.6,30.27,ESE,111,1.0,1.0,92,0.00,,,0.00,Wunderground v.1.15,2013-02-27 20:45:00,
2013-02-27 12:55:00,45.9,44.0,30.27,NNE,30,0.0,5.0,93,0.00,,,0.00,Wunderground v.1.15,2013-02-27 20:55:00,
2013-02-27 13:00:00,45.9,44.0,30.26,NNE,30,0.0,0.0,93,0.00,,,0.00,Wunderground v.1.15,2013-02-27 21:00:00,
2013-02-27 13:10:00,45.9,44.3,30.26,NE,53,0.0,1.0,94,0.00,,,0.01,Wunderground v.1.15,2013-02-27 21:10:00,
2013-02-27 13:15:00,45.9,44.3,30.26,ESE,105,0.0,2.0,94,0.00,,,0.01,Wunderground v.1.15,2013-02-27 21:15:00,
2013-02-27 13:25:00,46.0,44.4,30.26,ESE,113,1.0,2.0,94,0.00,,,0.01,Wunderground v.1.15,2013-02-27 21:25:00,
2013-02-27 13:35:00,46.2,44.8,30.25,SE,132,0.0,1.0,95,0.00,,,0.02,Wunderground v.1.15,2013-02-27 21:35:00,
2013-02-27 13:45:00,46.2,44.8,30.25,SE,132,0.0,1.0,95,0.00,,,0.02,Wunderground v.1.15,2013-02-27 21:45:00,
2013-02-27 13:55:00,46.1,44.7,30.26,SE,132,0.0,3.0,95,0.00,,,0.02,Wunderground v.1.15,2013-02-27 21:55:00,
2013-02-27 14:00:00,46.1,44.7,30.25,ESE,111,1.0,2.0,95,0.00,,,0.02,Wunderground v.1.15,2013-02-27 22:00:00,
2013-02-27 14:10:00,46.1,44.7,30.24,ESE,111,0.0,0.0,95,0.00,,,0.02,Wunderground v.1.15,2013-02-27 22:10:00,
2013-02-27 14:20:00,46.2,45.1,30.24,East,95,0.0,0.0,96,0.00,,,0.03,Wunderground v.1.15,2013-02-27 22:20:00,
2013-02-27 14:30:00,46.2,45.1,30.24,East,95,0.0,0.0,96,0.00,,,0.03,Wunderground v.1.15,2013-02-27 22:30:00,
2013-02-27 14:35:00,46.3,45.2,30.24,East,95,0.0,0.0,96,0.00,,,0.03,Wunderground v.1.15,2013-02-27 22:35:00,
2013-02-27 14:45:00,46.6,45.5,30.25,East,95,0.0,0.0,96,0.00,,,0.03,Wunderground v.1.15,2013-02-27 22:45:00,
2013-02-27 14:50:00,46.5,45.4,30.25,NNE,17,0.0,2.0,96,0.00,,,0.03,Wunderground v.1.15,2013-02-27 22:50:00,
2013-02-27 15:00:00,46.0,44.9,30.25,NNE,17,1.0,1.0,96,0.00,,,0.03,Wunderground v.1.15,2013-02-27 23:00:00,
2013-02-27 15:10:00,45.6,44.5,30.25,NNE,15,2.0,2.0,96,0.00,,,0.03,Wunderground v.1.15,2013-02-27 23:10:00,
2013-02-27 15:20:00,45.4,44.3,30.24,ENE,77,1.0,1.0,96,0.00,,,0.03,Wunderground v.1.15,2013-02-27 23:20:00,
2013-02-27 15:30:00,45.3,44.5,30.25,NNE,32,1.0,1.0,97,0.00,,,0.04,Wunderground v.1.15,2013-02-27 23:30:00,
2013-02-27 15:40:00,45.4,44.6,30.24,NNE,32,0.0,0.0,97,0.00,,,0.04,Wunderground v.1.15,2013-02-27 23:40:00,
2013-02-27 15:50:00,45.4,44.6,30.24,NNE,32,0.0,0.0,97,0.00,,,0.04,Wunderground v.1.15,2013-02-27 23:50:00,
2013-02-27 16:00:00,45.4,44.6,30.25,NNE,32,0.0,0.0,97,0.00,,,0.04,Wunderground v.1.15,2013-02-28 00:00:00,
2013-02-27 16:10:00,45.4,44.6,30.24,NNE,32,0.0,3.0,97,0.00,,,0.04,Wunderground v.1.15,2013-02-28 00:10:00,
2013-02-27 16:20:00,45.4,44.6,30.24,NNE,32,0.0,0.0,97,0.00,,,0.04,Wunderground v.1.15,2013-02-28 00:20:00,
2013-02-27 16:30:00,45.4,44.6,30.24,NNE,32,0.0,1.0,97,0.00,,,0.05,Wunderground v.1.15,2013-02-28 00:30:00,
2013-02-27 16:40:00,45.4,44.6,30.24,NNE,32,0.0,0.0,97,0.00,,,0.05,Wunderground v.1.15,2013-02-28 00:40:00,
2013-02-27 16:50:00,45.4,44.6,30.24,NNE,32,0.0,1.0,97,0.00,,,0.06,Wunderground v.1.15,2013-02-28 00:50:00,
2013-02-27 17:00:00,45.4,44.6,30.24,NNE,32,0.0,0.0,97,0.14,,,0.08,Wunderground v.1.15,2013-02-28 01:00:00,
2013-02-27 17:10:00,45.3,44.5,30.24,NNE,32,0.0,0.0,97,0.14,,,0.10,Wunderground v.1.15,2013-02-28 01:10:00,
2013-02-27 17:20:00,45.2,44.4,30.23,NNE,32,0.0,0.0,97,0.15,,,0.13,Wunderground v.1.15,2013-02-28 01:20:00,
2013-02-27 17:25:00,45.2,44.4,30.23,NNE,32,0.0,0.0,97,0.07,,,0.13,Wunderground v.1.15,2013-02-28 01:25:00,
2013-02-27 17:35:00,45.1,44.6,30.23,South,173,1.0,3.0,98,0.04,,,0.14,Wunderground v.1.15,2013-02-28 01:35:00,
2013-02-27 17:45:00,44.9,44.1,30.22,NNW,346,1.0,2.0,97,0.04,,,0.14,Wunderground v.1.15,2013-02-28 01:45:00,
2013-02-27 17:55:00,44.8,44.0,30.23,NNW,346,0.0,2.0,97,0.00,,,0.15,Wunderground v.1.15,2013-02-28 01:55:00,
2013-02-27 18:00:00,44.9,44.4,30.23,NNW,346,0.0,0.0,98,0.00,,,0.15,Wunderground v.1.15,2013-02-28 02:00:00,
2013-02-27 18:10:00,44.9,44.4,30.22,NNW,346,0.0,0.0,98,0.00,,,0.15,Wunderground v.1.15,2013-02-28 02:10:00,
2013-02-27 18:15:00,45.0,44.5,30.22,NNW,346,0.0,0.0,98,0.00,,,0.15,Wunderground v.1.15,2013-02-28 02:15:00,
2013-02-27 18:25:00,45.0,44.5,30.21,NNW,346,0.0,0.0,98,0.00,,,0.15,Wunderground v.1.15,2013-02-28 02:25:00,
2013-02-27 18:35:00,45.0,44.5,30.22,NNW,346,0.0,0.0,98,0.00,,,0.15,Wunderground v.1.15,2013-02-28 02:35:00,
2013-02-27 18:45:00,44.9,44.4,30.21,NE,55,0.0,1.0,98,0.00,,,0.15,Wunderground v.1.15,2013-02-28 02:45:00,
2013-02-27 18:55:00,44.9,44.4,30.23,NE,55,0.0,2.0,98,0.00,,,0.15,Wunderground v.1.15,2013-02-28 02:55:00,
2013-02-27 19:00:00,44.9,44.4,30.23,NE,55,0.0,0.0,98,0.00,,,0.15,Wunderground v.1.15,2013-02-28 03:00:00,
2013-02-27 19:10:00,44.4,43.9,30.23,North,349,1.0,1.0,98,0.00,,,0.15,Wunderground v.1.15,2013-02-28 03:10:00,
2013-02-27 19:20:00,43.8,43.3,30.23,North,355,1.0,1.0,98,0.00,,,0.15,Wunderground v.1.15,2013-02-28 03:20:00,
2013-02-27 19:25:00,43.7,43.2,30.24,North,355,1.0,2.0,98,0.00,,,0.15,Wunderground v.1.15,2013-02-28 03:25:00,
2013-02-27 19:35:00,43.6,43.1,30.24,North,355,1.0,1.0,98,0.00,,,0.15,Wunderground v.1.15,2013-02-28 03:35:00,
2013-02-27 19:45:00,43.4,42.9,30.23,North,355,0.0,1.0,98,0.00,,,0.15,Wunderground v.1.15,2013-02-28 03:45:00,
2013-02-27 19:55:00,43.7,43.2,30.23,SE,126,0.0,3.0,98,0.00,,,0.15,Wunderground v.1.15,2013-02-28 03:55:00,
2013-02-27 20:00:00,44.0,43.5,30.23,SE,126,0.0,0.0,98,0.00,,,0.15,Wunderground v.1.15,2013-02-28 04:00:00,
2013-02-27 20:10:00,44.2,43.7,30.23,SE,126,0.0,0.0,98,0.00,,,0.15,Wunderground v.1.15,2013-02-28 04:10:00,
2013-02-27 20:20:00,44.0,43.5,30.23,SE,126,0.0,0.0,98,0.00,,,0.15,Wunderground v.1.15,2013-02-28 04:20:00,
2013-02-27 20:30:00,44.1,43.6,30.23,SE,126,0.0,0.0,98,0.00,,,0.15,Wunderground v.1.15,2013-02-28 04:30:00,
2013-02-27 20:40:00,44.2,43.7,30.23,NNE,28,2.0,3.0,98,0.00,,,0.15,Wunderground v.1.15,2013-02-28 04:40:00,
2013-02-27 20:50:00,44.2,43.7,30.23,ENE,65,3.0,3.0,98,0.00,,,0.15,Wunderground v.1.15,2013-02-28 04:50:00,
2013-02-27 21:00:00,44.1,43.6,30.23,ESE,103,2.0,2.0,98,0.00,,,0.15,Wunderground v.1.15,2013-02-28 05:00:00,
2013-02-27 21:05:00,44.0,43.5,30.24,ESE,103,1.0,2.0,98,0.00,,,0.15,Wunderground v.1.15,2013-02-28 05:05:00,
2013-02-27 21:10:00,44.0,43.5,30.23,ESE,103,0.0,0.0,98,0.00,,,0.15,Wunderground v.1.15,2013-02-28 05:10:00,
2013-02-27 21:20:00,44.0,43.5,30.23,North,355,1.0,3.0,98,0.00,,,0.15,Wunderground v.1.15,2013-02-28 05:20:00,
2013-02-27 21:25:00,43.9,43.4,30.23,North,5,2.0,3.0,98,0.00,,,0.15,Wunderground v.1.15,2013-02-28 05:25:00,
2013-02-27 21:30:00,43.9,43.4,30.23,NNE,28,1.0,1.0,98,0.00,,,0.15,Wunderground v.1.15,2013-02-28 05:30:00,
2013-02-27 21:40:00,44.0,43.5,30.24,North,5,1.0,3.0,98,0.00,,,0.15,Wunderground v.1.15,2013-02-28 05:40:00,
2013-02-27 21:45:00,43.9,43.4,30.23,NNE,30,2.0,3.0,98,0.00,,,0.15,Wunderground v.1.15,2013-02-28 05:45:00,
2013-02-27 21:55:00,43.8,43.3,30.23,NE,45,2.0,7.0,98,0.00,,,0.15,Wunderground v.1.15,2013-02-28 05:55:00,
2013-02-27 22:00:00,43.8,43.3,30.23,East,89,2.0,2.0,98,0.00,,,0.15,Wunderground v.1.15,2013-02-28 06:00:00,
2013-02-27 22:10:00,43.8,43.3,30.23,ESE,112,3.0,3.0,98,0.00,,,0.15,Wunderground v.1.15,2013-02-28 06:10:00,
2013-02-27 22:20:00,43.7,43.2,30.23,East,87,2.0,3.0,98,0.00,,,0.15,Wunderground v.1.15,2013-02-28 06:20:00,
2013-02-27 22:30:00,43.8,43.3,30.23,NNE,26,2.0,2.0,98,0.00,,,0.16,Wunderground v.1.15,2013-02-28 06:30:00,
2013-02-27 22:40:00,43.7,43.2,30.23,East,82,2.0,2.0,98,0.00,,,0.16,Wunderground v.1.15,2013-02-28 06:40:00,
2013-02-27 22:45:00,43.7,43.2,30.23,NNE,30,2.0,2.0,98,0.00,,,0.16,Wunderground v.1.15,2013-02-28 06:45:00,
2013-02-27 22:55:00,43.6,43.1,30.22,North,9,2.0,6.0,98,0.00,,,0.16,Wunderground v.1.15,2013-02-28 06:55:00,
2013-02-27 23:00:00,43.6,43.1,30.23,ENE,73,1.0,1.0,98,0.00,,,0.16,Wunderground v.1.15,2013-02-28 07:00:00,
2013-02-27 23:10:00,43.6,43.1,30.22,NNE,31,1.0,1.0,98,0.00,,,0.17,Wunderground v.1.15,2013-02-28 07:10:00,
2013-02-27 23:15:00,43.5,43.0,30.23,NNE,31,1.0,1.0,98,0.00,,,0.17,Wunderground v.1.15,2013-02-28 07:15:00,
2013-02-27 23:25:00,43.5,43.0,30.23,NNE,31,0.0,0.0,98,0.00,,,0.17,Wunderground v.1.15,2013-02-28 07:25:00,
2013-02-27 23:35:00,43.6,43.1,30.23,NNE,31,0.0,1.0,98,0.00,,,0.17,Wunderground v.1.15,2013-02-28 07:35:00,
2013-02-27 23:45:00,43.6,43.1,30.23,NNE,31,0.0,0.0,98,0.00,,,0.18,Wunderground v.1.15,2013-02-28 07:45:00,
2013-02-27 23:55:00,43.6,43.1,30.23,NNE,31,0.0,6.0,98,0.05,,,0.19,Wunderground v.1.15,2013-02-28 07:55:00,